Main page
METAR-TAF:

METAR-TAF

Airports :

Asaluyeh, Iran

Persian Gulf Airport

latitude: 27-22-46N, longitude: 52-44-15E, elevation: 8 m

Current weather observation

The report was made 21 minutes ago, at 04:30 UTC
Wind 6 kt from the Southeast
Temperature 35°C
Humidity 53%
Pressure 1001 hPa
Visibility: 3500 m
haze

METAR: OIBP 240430Z 14006KT 3500 HZ NSC 35/24 Q1000 A2955

Time: 09:21 (04:51 UTC)


TAF: missing

Weather observations and forecasts of more than 4000 airports (METAR and TAF reports).

The available stations are represented by yellow and red dots on the map.

Hover mouse over dot to see the name of the station.

Then click to see weather observations and forecasts.

To change the map : click on the green buttons with a black cross to zoom in, on the green button with a dash to zoom out, or on the green arrows for adjacent maps.


METAR-TAF: